sensor_id;sensor_type;location;lat;lon;timestamp;temperature;humidity
68648;SHT31;55632;51.962;16.116;2022-10-16T00:02:34;13.07;90.80
68648;SHT31;55632;51.962;16.116;2022-10-16T00:07:34;13.11;90.74
68648;SHT31;55632;51.962;16.116;2022-10-16T00:12:35;13.14;90.66
68648;SHT31;55632;51.962;16.116;2022-10-16T00:17:39;13.15;90.55
68648;SHT31;55632;51.962;16.116;2022-10-16T00:22:45;13.14;90.49
68648;SHT31;55632;51.962;16.116;2022-10-16T00:27:48;13.07;90.40
68648;SHT31;55632;51.962;16.116;2022-10-16T00:32:49;13.04;90.36
68648;SHT31;55632;51.962;16.116;2022-10-16T00:37:53;12.99;90.32
68648;SHT31;55632;51.962;16.116;2022-10-16T00:42:54;12.95;90.47
68648;SHT31;55632;51.962;16.116;2022-10-16T00:47:55;12.99;90.58
68648;SHT31;55632;51.962;16.116;2022-10-16T00:52:57;13.02;90.71
68648;SHT31;55632;51.962;16.116;2022-10-16T00:58:02;13.07;90.78
68648;SHT31;55632;51.962;16.116;2022-10-16T01:03:21;13.11;90.82
68648;SHT31;55632;51.962;16.116;2022-10-16T01:08:33;13.18;90.79
68648;SHT31;55632;51.962;16.116;2022-10-16T01:13:41;13.23;90.78
68648;SHT31;55632;51.962;16.116;2022-10-16T01:18:46;13.24;90.80
68648;SHT31;55632;51.962;16.116;2022-10-16T01:24:17;13.31;90.82
68648;SHT31;55632;51.962;16.116;2022-10-16T01:34:52;13.40;90.82
68648;SHT31;55632;51.962;16.116;2022-10-16T01:39:59;13.45;90.88
68648;SHT31;55632;51.962;16.116;2022-10-16T01:45:01;13.49;90.93
68648;SHT31;55632;51.962;16.116;2022-10-16T01:50:04;13.57;90.98
68648;SHT31;55632;51.962;16.116;2022-10-16T01:55:08;13.65;91.00
68648;SHT31;55632;51.962;16.116;2022-10-16T02:00:11;13.73;91.00
68648;SHT31;55632;51.962;16.116;2022-10-16T02:10:24;13.84;91.11
68648;SHT31;55632;51.962;16.116;2022-10-16T02:15:26;13.89;91.05
68648;SHT31;55632;51.962;16.116;2022-10-16T02:20:35;13.96;91.02
68648;SHT31;55632;51.962;16.116;2022-10-16T02:25:44;14.01;90.98
68648;SHT31;55632;51.962;16.116;2022-10-16T02:30:51;14.04;91.01
68648;SHT31;55632;51.962;16.116;2022-10-16T02:35:53;14.10;91.00
68648;SHT31;55632;51.962;16.116;2022-10-16T02:40:55;14.17;90.98
68648;SHT31;55632;51.962;16.116;2022-10-16T02:45:58;14.20;90.98
68648;SHT31;55632;51.962;16.116;2022-10-16T02:51:02;14.24;90.91
68648;SHT31;55632;51.962;16.116;2022-10-16T02:56:03;14.25;90.92
68648;SHT31;55632;51.962;16.116;2022-10-16T03:01:07;14.25;90.91
68648;SHT31;55632;51.962;16.116;2022-10-16T03:06:11;14.32;90.91
68648;SHT31;55632;51.962;16.116;2022-10-16T03:11:12;14.32;90.88
68648;SHT31;55632;51.962;16.116;2022-10-16T03:16:13;14.32;90.82
68648;SHT31;55632;51.962;16.116;2022-10-16T03:21:13;14.29;90.73
68648;SHT31;55632;51.962;16.116;2022-10-16T03:26:18;14.28;90.61
68648;SHT31;55632;51.962;16.116;2022-10-16T03:31:22;14.25;90.57
68648;SHT31;55632;51.962;16.116;2022-10-16T03:36:26;14.20;90.51
68648;SHT31;55632;51.962;16.116;2022-10-16T03:41:27;14.16;90.48
68648;SHT31;55632;51.962;16.116;2022-10-16T03:46:35;14.07;90.47
68648;SHT31;55632;51.962;16.116;2022-10-16T03:51:36;14.03;90.48
68648;SHT31;55632;51.962;16.116;2022-10-16T03:56:38;14.03;90.52
68648;SHT31;55632;51.962;16.116;2022-10-16T04:01:39;14.00;90.53
68648;SHT31;55632;51.962;16.116;2022-10-16T04:06:43;13.99;90.51
68648;SHT31;55632;51.962;16.116;2022-10-16T04:11:44;13.94;90.54
68648;SHT31;55632;51.962;16.116;2022-10-16T04:16:45;13.93;90.50
68648;SHT31;55632;51.962;16.116;2022-10-16T04:21:45;13.86;90.46
68648;SHT31;55632;51.962;16.116;2022-10-16T04:26:50;13.82;90.39
68648;SHT31;55632;51.962;16.116;2022-10-16T04:31:51;13.70;90.39
68648;SHT31;55632;51.962;16.116;2022-10-16T04:36:52;13.65;90.44
68648;SHT31;55632;51.962;16.116;2022-10-16T04:41:53;13.61;90.68
68648;SHT31;55632;51.962;16.116;2022-10-16T04:46:54;13.61;90.89
68648;SHT31;55632;51.962;16.116;2022-10-16T04:51:58;13.70;91.02
68648;SHT31;55632;51.962;16.116;2022-10-16T04:56:59;13.72;91.12
68648;SHT31;55632;51.962;16.116;2022-10-16T05:01:59;13.76;91.20
68648;SHT31;55632;51.962;16.116;2022-10-16T05:07:04;13.79;91.21
68648;SHT31;55632;51.962;16.116;2022-10-16T05:12:08;13.82;91.27
68648;SHT31;55632;51.962;16.116;2022-10-16T05:17:13;13.82;91.31
68648;SHT31;55632;51.962;16.116;2022-10-16T05:22:16;13.79;91.30
68648;SHT31;55632;51.962;16.116;2022-10-16T05:27:17;13.77;91.32
68648;SHT31;55632;51.962;16.116;2022-10-16T05:32:21;13.82;91.31
68648;SHT31;55632;51.962;16.116;2022-10-16T05:37:21;13.79;91.34
68648;SHT31;55632;51.962;16.116;2022-10-16T05:42:22;13.80;91.41
68648;SHT31;55632;51.962;16.116;2022-10-16T05:47:23;13.82;91.50
68648;SHT31;55632;51.962;16.116;2022-10-16T05:52:24;13.87;91.61
68648;SHT31;55632;51.962;16.116;2022-10-16T05:57:25;13.91;91.65
68648;SHT31;55632;51.962;16.116;2022-10-16T06:02:26;13.97;91.65
68648;SHT31;55632;51.962;16.116;2022-10-16T06:07:27;14.04;91.69
68648;SHT31;55632;51.962;16.116;2022-10-16T06:12:33;14.09;91.77
68648;SHT31;55632;51.962;16.116;2022-10-16T06:17:34;14.18;91.84
68648;SHT31;55632;51.962;16.116;2022-10-16T06:22:35;14.27;91.86
68648;SHT31;55632;51.962;16.116;2022-10-16T06:27:39;14.38;91.91
68648;SHT31;55632;51.962;16.116;2022-10-16T06:32:41;14.52;91.90
68648;SHT31;55632;51.962;16.116;2022-10-16T06:37:41;14.62;91.79
68648;SHT31;55632;51.962;16.116;2022-10-16T06:42:42;14.72;91.73
68648;SHT31;55632;51.962;16.116;2022-10-16T06:47:49;14.83;91.76
68648;SHT31;55632;51.962;16.116;2022-10-16T06:52:50;15.00;91.70
68648;SHT31;55632;51.962;16.116;2022-10-16T06:57:54;15.12;91.58
68648;SHT31;55632;51.962;16.116;2022-10-16T07:02:55;15.27;91.40
68648;SHT31;55632;51.962;16.116;2022-10-16T07:07:56;15.39;91.28
68648;SHT31;55632;51.962;16.116;2022-10-16T07:12:57;15.50;91.14
68648;SHT31;55632;51.962;16.116;2022-10-16T07:17:58;15.65;90.97
68648;SHT31;55632;51.962;16.116;2022-10-16T07:22:58;15.77;90.81
68648;SHT31;55632;51.962;16.116;2022-10-16T07:28:02;15.91;90.64
68648;SHT31;55632;51.962;16.116;2022-10-16T07:33:04;16.04;90.57
68648;SHT31;55632;51.962;16.116;2022-10-16T07:38:05;16.18;90.35
68648;SHT31;55632;51.962;16.116;2022-10-16T07:43:05;16.33;90.20
68648;SHT31;55632;51.962;16.116;2022-10-16T07:48:06;16.49;89.93
68648;SHT31;55632;51.962;16.116;2022-10-16T07:53:11;16.64;89.68
68648;SHT31;55632;51.962;16.116;2022-10-16T07:58:12;16.81;89.42
68648;SHT31;55632;51.962;16.116;2022-10-16T08:03:13;16.97;89.11
68648;SHT31;55632;51.962;16.116;2022-10-16T08:08:15;17.11;88.84
68648;SHT31;55632;51.962;16.116;2022-10-16T08:13:16;17.24;88.41
68648;SHT31;55632;51.962;16.116;2022-10-16T08:18:17;17.35;88.04
68648;SHT31;55632;51.962;16.116;2022-10-16T08:23:18;17.42;87.70
68648;SHT31;55632;51.962;16.116;2022-10-16T08:28:19;17.54;87.43
68648;SHT31;55632;51.962;16.116;2022-10-16T08:33:20;17.63;87.20
68648;SHT31;55632;51.962;16.116;2022-10-16T08:38:21;17.76;87.06
68648;SHT31;55632;51.962;16.116;2022-10-16T08:48:50;18.15;86.19
68648;SHT31;55632;51.962;16.116;2022-10-16T08:54:01;18.33;85.39
68648;SHT31;55632;51.962;16.116;2022-10-16T08:59:06;18.50;84.53
68648;SHT31;55632;51.962;16.116;2022-10-16T09:04:30;18.60;84.22
68648;SHT31;55632;51.962;16.116;2022-10-16T09:09:54;18.70;83.62
68648;SHT31;55632;51.962;16.116;2022-10-16T09:15:10;18.77;83.40
68648;SHT31;55632;51.962;16.116;2022-10-16T09:20:34;18.83;83.04
68648;SHT31;55632;51.962;16.116;2022-10-16T09:25:39;18.95;82.78
68648;SHT31;55632;51.962;16.116;2022-10-16T09:30:40;19.12;82.42
68648;SHT31;55632;51.962;16.116;2022-10-16T09:35:44;19.33;81.93
68648;SHT31;55632;51.962;16.116;2022-10-16T09:40:45;19.43;81.55
68648;SHT31;55632;51.962;16.116;2022-10-16T09:57:30;20.40;76.17
68648;SHT31;55632;51.962;16.116;2022-10-16T10:02:35;20.39;75.69
68648;SHT31;55632;51.962;16.116;2022-10-16T10:07:43;20.36;75.92
68648;SHT31;55632;51.962;16.116;2022-10-16T10:12:47;20.33;75.67
68648;SHT31;55632;51.962;16.116;2022-10-16T10:17:53;20.25;75.63
68648;SHT31;55632;51.962;16.116;2022-10-16T10:22:55;20.16;75.70
68648;SHT31;55632;51.962;16.116;2022-10-16T10:28:20;20.11;75.76
68648;SHT31;55632;51.962;16.116;2022-10-16T10:33:50;20.13;75.91
68648;SHT31;55632;51.962;16.116;2022-10-16T10:44:30;20.41;76.07
68648;SHT31;55632;51.962;16.116;2022-10-16T10:55:06;20.74;75.13
68648;SHT31;55632;51.962;16.116;2022-10-16T11:05:43;20.87;73.97
68648;SHT31;55632;51.962;16.116;2022-10-16T11:11:05;20.94;73.73
68648;SHT31;55632;51.962;16.116;2022-10-16T11:16:23;20.96;73.62
68648;SHT31;55632;51.962;16.116;2022-10-16T11:21:31;21.02;73.44
68648;SHT31;55632;51.962;16.116;2022-10-16T11:26:43;21.13;73.41
68648;SHT31;55632;51.962;16.116;2022-10-16T11:31:50;21.20;73.24
68648;SHT31;55632;51.962;16.116;2022-10-16T11:37:19;21.26;72.57
68648;SHT31;55632;51.962;16.116;2022-10-16T11:42:44;21.32;72.46
68648;SHT31;55632;51.962;16.116;2022-10-16T11:48:12;21.43;71.71
68648;SHT31;55632;51.962;16.116;2022-10-16T11:53:42;21.54;71.43
68648;SHT31;55632;51.962;16.116;2022-10-16T11:59:11;21.60;70.68
68648;SHT31;55632;51.962;16.116;2022-10-16T12:04:33;21.65;69.84
68648;SHT31;55632;51.962;16.116;2022-10-16T12:09:39;21.68;69.46
68648;SHT31;55632;51.962;16.116;2022-10-16T12:14:40;21.67;68.71
68648;SHT31;55632;51.962;16.116;2022-10-16T12:19:41;21.67;68.50
68648;SHT31;55632;51.962;16.116;2022-10-16T12:24:42;21.65;68.29
68648;SHT31;55632;51.962;16.116;2022-10-16T12:29:44;21.64;68.26
68648;SHT31;55632;51.962;16.116;2022-10-16T12:34:45;21.65;67.94
68648;SHT31;55632;51.962;16.116;2022-10-16T12:39:47;21.68;67.95
68648;SHT31;55632;51.962;16.116;2022-10-16T12:44:49;21.71;67.74
68648;SHT31;55632;51.962;16.116;2022-10-16T12:49:53;21.77;67.85
68648;SHT31;55632;51.962;16.116;2022-10-16T12:54:57;21.82;67.56
68648;SHT31;55632;51.962;16.116;2022-10-16T13:00:13;21.89;67.39
68648;SHT31;55632;51.962;16.116;2022-10-16T13:11:43;21.89;66.91
68648;SHT31;55632;51.962;16.116;2022-10-16T13:16:55;21.89;66.54
68648;SHT31;55632;51.962;16.116;2022-10-16T13:22:05;21.78;66.62
68648;SHT31;55632;51.962;16.116;2022-10-16T13:32:30;21.77;66.83
68648;SHT31;55632;51.962;16.116;2022-10-16T13:37:31;21.75;67.12
68648;SHT31;55632;51.962;16.116;2022-10-16T13:42:32;21.77;66.95
68648;SHT31;55632;51.962;16.116;2022-10-16T13:47:33;21.74;67.00
68648;SHT31;55632;51.962;16.116;2022-10-16T13:52:34;21.73;67.15
68648;SHT31;55632;51.962;16.116;2022-10-16T13:57:35;21.69;67.44
68648;SHT31;55632;51.962;16.116;2022-10-16T14:02:38;21.69;67.56
68648;SHT31;55632;51.962;16.116;2022-10-16T14:07:40;21.68;67.66
